sensor_id;sensor_type;location;lat;lon;timestamp;pressure;altitude;pressure_sealevel;temperature;humidity
9764;BME280;4921;43.214;27.936;2022-10-17T00:01:04;102394.78;;;15.12;46.99
9764;BME280;4921;43.214;27.936;2022-10-17T00:03:32;102395.09;;;15.07;46.81
9764;BME280;4921;43.214;27.936;2022-10-17T00:06:04;102403.28;;;15.04;46.82
9764;BME280;4921;43.214;27.936;2022-10-17T00:08:31;102408.88;;;15.00;46.88
9764;BME280;4921;43.214;27.936;2022-10-17T00:10:59;102403.59;;;15.00;46.89
9764;BME280;4921;43.214;27.936;2022-10-17T00:13:27;102411.97;;;14.94;47.13
9764;BME280;4921;43.214;27.936;2022-10-17T00:15:55;102413.22;;;14.88;47.65
9764;BME280;4921;43.214;27.936;2022-10-17T00:18:22;102404.53;;;14.86;47.83
9764;BME280;4921;43.214;27.936;2022-10-17T00:20:49;102405.59;;;14.84;47.98
9764;BME280;4921;43.214;27.936;2022-10-17T00:23:18;102400.63;;;14.79;48.29
9764;BME280;4921;43.214;27.936;2022-10-17T00:25:45;102394.69;;;14.76;48.90
9764;BME280;4921;43.214;27.936;2022-10-17T00:28:12;102391.28;;;14.74;49.13
9764;BME280;4921;43.214;27.936;2022-10-17T00:30:40;102389.50;;;14.74;49.34
9764;BME280;4921;43.214;27.936;2022-10-17T00:33:07;102383.16;;;14.77;49.21
9764;BME280;4921;43.214;27.936;2022-10-17T00:35:34;102386.41;;;14.80;49.35
9764;BME280;4921;43.214;27.936;2022-10-17T00:38:01;102381.31;;;14.77;49.51
9764;BME280;4921;43.214;27.936;2022-10-17T00:40:29;102380.38;;;14.78;49.86
9764;BME280;4921;43.214;27.936;2022-10-17T00:42:56;102379.34;;;14.81;49.69
9764;BME280;4921;43.214;27.936;2022-10-17T00:45:25;102386.53;;;14.79;49.74
9764;BME280;4921;43.214;27.936;2022-10-17T00:47:54;102382.84;;;14.81;49.77
9764;BME280;4921;43.214;27.936;2022-10-17T00:50:24;102379.00;;;14.85;49.37
9764;BME280;4921;43.214;27.936;2022-10-17T00:52:52;102372.31;;;14.92;48.66
9764;BME280;4921;43.214;27.936;2022-10-17T00:55:23;102372.66;;;14.88;48.82
9764;BME280;4921;43.214;27.936;2022-10-17T00:57:52;102379.75;;;14.87;48.68
9764;BME280;4921;43.214;27.936;2022-10-17T01:00:20;102372.66;;;14.88;48.64
9764;BME280;4921;43.214;27.936;2022-10-17T01:02:47;102376.78;;;14.92;48.59
9764;BME280;4921;43.214;27.936;2022-10-17T01:05:15;102382.09;;;14.92;48.47
9764;BME280;4921;43.214;27.936;2022-10-17T01:07:43;102377.53;;;14.94;48.34
9764;BME280;4921;43.214;27.936;2022-10-17T01:10:12;102369.16;;;14.87;48.41
9764;BME280;4921;43.214;27.936;2022-10-17T01:12:47;102378.69;;;14.90;48.61
9764;BME280;4921;43.214;27.936;2022-10-17T01:15:26;102375.63;;;14.96;48.41
9764;BME280;4921;43.214;27.936;2022-10-17T01:18:07;102368.59;;;14.95;48.53
9764;BME280;4921;43.214;27.936;2022-10-17T01:24:11;102383.13;;;14.89;48.58
9764;BME280;4921;43.214;27.936;2022-10-17T01:26:56;102378.28;;;14.83;48.12
9764;BME280;4921;43.214;27.936;2022-10-17T01:29:33;102377.22;;;14.86;48.11
9764;BME280;4921;43.214;27.936;2022-10-17T01:32:09;102371.81;;;14.87;47.94
9764;BME280;4921;43.214;27.936;2022-10-17T01:34:44;102375.38;;;14.86;47.72
9764;BME280;4921;43.214;27.936;2022-10-17T01:37:17;102378.28;;;14.83;47.57
9764;BME280;4921;43.214;27.936;2022-10-17T01:39:48;102380.19;;;14.81;47.41
9764;BME280;4921;43.214;27.936;2022-10-17T01:42:18;102380.69;;;14.86;47.46
9764;BME280;4921;43.214;27.936;2022-10-17T01:44:51;102386.22;;;14.83;47.35
9764;BME280;4921;43.214;27.936;2022-10-17T01:47:24;102383.88;;;14.79;47.51
9764;BME280;4921;43.214;27.936;2022-10-17T01:49:54;102391.28;;;14.74;47.48
9764;BME280;4921;43.214;27.936;2022-10-17T01:52:26;102390.03;;;14.79;47.14
9764;BME280;4921;43.214;27.936;2022-10-17T01:54:55;102393.50;;;14.80;46.68
9764;BME280;4921;43.214;27.936;2022-10-17T01:57:28;102391.28;;;14.74;46.98
9764;BME280;4921;43.214;27.936;2022-10-17T01:59:58;102396.91;;;14.69;47.17
9764;BME280;4921;43.214;27.936;2022-10-17T02:02:28;102395.31;;;14.67;47.54
9764;BME280;4921;43.214;27.936;2022-10-17T02:04:55;102385.56;;;14.67;47.33
9764;BME280;4921;43.214;27.936;2022-10-17T02:07:23;102399.66;;;14.68;47.51
9764;BME280;4921;43.214;27.936;2022-10-17T02:09:49;102394.38;;;14.68;47.00
9764;BME280;4921;43.214;27.936;2022-10-17T02:12:37;102397.00;;;14.68;46.99
9764;BME280;4921;43.214;27.936;2022-10-17T02:15:44;102399.03;;;14.64;47.19
9764;BME280;4921;43.214;27.936;2022-10-17T02:18:29;102402.44;;;14.66;46.91
9764;BME280;4921;43.214;27.936;2022-10-17T02:21:06;102389.06;;;14.68;46.59
9764;BME280;4921;43.214;27.936;2022-10-17T02:23:39;102407.91;;;14.76;46.65
9764;BME280;4921;43.214;27.936;2022-10-17T02:26:14;102408.47;;;14.81;46.72
9764;BME280;4921;43.214;27.936;2022-10-17T02:28:47;102403.16;;;14.81;46.62
9764;BME280;4921;43.214;27.936;2022-10-17T02:31:22;102411.97;;;14.81;46.98
9764;BME280;4921;43.214;27.936;2022-10-17T02:33:57;102416.41;;;14.81;47.03
9764;BME280;4921;43.214;27.936;2022-10-17T02:36:28;102417.66;;;14.75;46.96
9764;BME280;4921;43.214;27.936;2022-10-17T02:38:57;102413.97;;;14.78;47.04
9764;BME280;4921;43.214;27.936;2022-10-17T02:41:25;102417.16;;;14.70;47.14
9764;BME280;4921;43.214;27.936;2022-10-17T02:43:52;102424.03;;;14.73;47.09
9764;BME280;4921;43.214;27.936;2022-10-17T02:46:21;102427.63;;;14.72;46.61
9764;BME280;4921;43.214;27.936;2022-10-17T02:48:53;102424.78;;;14.75;46.59
9764;BME280;4921;43.214;27.936;2022-10-17T02:51:27;102438.22;;;14.72;46.65
9764;BME280;4921;43.214;27.936;2022-10-17T02:54:03;102439.94;;;14.73;46.71
9764;BME280;4921;43.214;27.936;2022-10-17T02:56:36;102438.84;;;14.75;46.85
9764;BME280;4921;43.214;27.936;2022-10-17T02:59:09;102436.63;;;14.69;47.35
9764;BME280;4921;43.214;27.936;2022-10-17T03:01:37;102433.13;;;14.69;47.85
9764;BME280;4921;43.214;27.936;2022-10-17T03:04:07;102437.38;;;14.71;48.25
9764;BME280;4921;43.214;27.936;2022-10-17T03:06:34;102433.47;;;14.77;48.92
9764;BME280;4921;43.214;27.936;2022-10-17T03:09:02;102444.16;;;14.75;49.13
9764;BME280;4921;43.214;27.936;2022-10-17T03:11:29;102443.53;;;14.72;49.85
9764;BME280;4921;43.214;27.936;2022-10-17T03:13:56;102436.31;;;14.74;49.91
9764;BME280;4921;43.214;27.936;2022-10-17T03:16:23;102442.25;;;14.77;49.81
9764;BME280;4921;43.214;27.936;2022-10-17T03:18:50;102443.09;;;14.78;50.23
9764;BME280;4921;43.214;27.936;2022-10-17T03:21:18;102447.75;;;14.74;49.87
9764;BME280;4921;43.214;27.936;2022-10-17T03:23:45;102443.31;;;14.75;49.73
9764;BME280;4921;43.214;27.936;2022-10-17T03:26:12;102439.06;;;14.72;49.75
9764;BME280;4921;43.214;27.936;2022-10-17T03:28:39;102445.84;;;14.76;49.26
9764;BME280;4921;43.214;27.936;2022-10-17T03:31:07;102442.16;;;14.79;48.88
9764;BME280;4921;43.214;27.936;2022-10-17T03:33:34;102445.00;;;14.76;48.84
9764;BME280;4921;43.214;27.936;2022-10-17T03:36:05;102447.03;;;14.72;48.86
9764;BME280;4921;43.214;27.936;2022-10-17T03:38:33;102441.91;;;14.69;49.25
9764;BME280;4921;43.214;27.936;2022-10-17T03:41:00;102431.31;;;14.69;49.41
9764;BME280;4921;43.214;27.936;2022-10-17T03:43:27;102429.66;;;14.68;49.22
9764;BME280;4921;43.214;27.936;2022-10-17T03:45:55;102428.78;;;14.68;49.21
9764;BME280;4921;43.214;27.936;2022-10-17T03:48:23;102428.16;;;14.64;49.21
9764;BME280;4921;43.214;27.936;2022-10-17T03:50:50;102433.47;;;14.64;49.34
9764;BME280;4921;43.214;27.936;2022-10-17T03:53:17;102432.06;;;14.71;49.06
9764;BME280;4921;43.214;27.936;2022-10-17T03:55:46;102424.13;;;14.71;49.09
9764;BME280;4921;43.214;27.936;2022-10-17T03:58:13;102429.84;;;14.65;49.15
9764;BME280;4921;43.214;27.936;2022-10-17T04:00:40;102431.94;;;14.60;49.33
9764;BME280;4921;43.214;27.936;2022-10-17T04:03:07;102429.41;;;14.59;49.75
9764;BME280;4921;43.214;27.936;2022-10-17T04:05:33;102441.78;;;14.58;50.11
9764;BME280;4921;43.214;27.936;2022-10-17T04:08:00;102440.97;;;14.58;50.19
9764;BME280;4921;43.214;27.936;2022-10-17T04:10:27;102438.31;;;14.58;49.92
9764;BME280;4921;43.214;27.936;2022-10-17T04:12:56;102439.06;;;14.60;49.94
9764;BME280;4921;43.214;27.936;2022-10-17T04:15:22;102453.03;;;14.62;50.08
9764;BME280;4921;43.214;27.936;2022-10-17T04:17:49;102456.63;;;14.61;50.25
9764;BME280;4921;43.214;27.936;2022-10-17T04:20:16;102457.50;;;14.61;50.46
9764;BME280;4921;43.214;27.936;2022-10-17T04:22:43;102452.00;;;14.64;50.51
9764;BME280;4921;43.214;27.936;2022-10-17T04:25:10;102466.81;;;14.67;50.11
9764;BME280;4921;43.214;27.936;2022-10-17T04:27:37;102457.19;;;14.66;49.95
9764;BME280;4921;43.214;27.936;2022-10-17T04:30:06;102478.56;;;14.63;49.93
9764;BME280;4921;43.214;27.936;2022-10-17T04:32:35;102467.88;;;14.64;49.68
9764;BME280;4921;43.214;27.936;2022-10-17T04:35:04;102472.63;;;14.59;49.85
9764;BME280;4921;43.214;27.936;2022-10-17T04:37:31;102480.47;;;14.61;49.93
9764;BME280;4921;43.214;27.936;2022-10-17T04:39:57;102483.22;;;14.59;49.88
9764;BME280;4921;43.214;27.936;2022-10-17T04:42:24;102491.91;;;14.61;49.35
9764;BME280;4921;43.214;27.936;2022-10-17T04:44:51;102489.25;;;14.61;49.07
9764;BME280;4921;43.214;27.936;2022-10-17T04:47:20;102489.38;;;14.60;48.81
9764;BME280;4921;43.214;27.936;2022-10-17T04:49:46;102496.56;;;14.58;48.90
9764;BME280;4921;43.214;27.936;2022-10-17T04:52:13;102493.41;;;14.65;48.98
9764;BME280;4921;43.214;27.936;2022-10-17T04:54:40;102500.41;;;14.66;49.08
9764;BME280;4921;43.214;27.936;2022-10-17T04:57:08;102502.31;;;14.64;49.13
9764;BME280;4921;43.214;27.936;2022-10-17T04:59:35;102505.16;;;14.61;49.52
9764;BME280;4921;43.214;27.936;2022-10-17T05:02:02;102509.59;;;14.61;49.51
9764;BME280;4921;43.214;27.936;2022-10-17T05:04:30;102509.69;;;14.59;49.66
9764;BME280;4921;43.214;27.936;2022-10-17T05:06:57;102519.09;;;14.50;49.75
9764;BME280;4921;43.214;27.936;2022-10-17T05:09:24;102519.00;;;14.52;49.83
9764;BME280;4921;43.214;27.936;2022-10-17T05:11:51;102526.00;;;14.53;50.08
9764;BME280;4921;43.214;27.936;2022-10-17T05:14:18;102524.72;;;14.59;50.06
9764;BME280;4921;43.214;27.936;2022-10-17T05:16:44;102529.00;;;14.61;49.87
9764;BME280;4921;43.214;27.936;2022-10-17T05:19:11;102534.28;;;14.61;49.90
9764;BME280;4921;43.214;27.936;2022-10-17T05:21:40;102539.56;;;14.61;50.47
9764;BME280;4921;43.214;27.936;2022-10-17T05:24:08;102542.03;;;14.64;50.57
9764;BME280;4921;43.214;27.936;2022-10-17T05:26:35;102551.56;;;14.67;50.19
9764;BME280;4921;43.214;27.936;2022-10-17T05:29:02;102545.22;;;14.69;50.22
9764;BME280;4921;43.214;27.936;2022-10-17T05:31:30;102544.34;;;14.69;50.53
9764;BME280;4921;43.214;27.936;2022-10-17T05:33:59;102548.72;;;14.70;50.72
9764;BME280;4921;43.214;27.936;2022-10-17T05:36:26;102554.75;;;14.72;50.75
9764;BME280;4921;43.214;27.936;2022-10-17T05:38:54;102558.16;;;14.74;50.75
9764;BME280;4921;43.214;27.936;2022-10-17T05:41:21;102556.13;;;14.77;50.72
9764;BME280;4921;43.214;27.936;2022-10-17T05:43:48;102555.31;;;14.77;51.42
9764;BME280;4921;43.214;27.936;2022-10-17T05:46:15;102565.50;;;14.83;52.02
9764;BME280;4921;43.214;27.936;2022-10-17T05:48:42;102566.13;;;14.86;53.10
9764;BME280;4921;43.214;27.936;2022-10-17T05:51:10;102568.69;;;14.88;53.52
9764;BME280;4921;43.214;27.936;2022-10-17T05:53:39;102564.97;;;14.90;54.61
9764;BME280;4921;43.214;27.936;2022-10-17T05:56:09;102573.66;;;14.92;54.94
9764;BME280;4921;43.214;27.936;2022-10-17T05:58:39;102571.47;;;14.99;55.41
9764;BME280;4921;43.214;27.936;2022-10-17T06:01:07;102576.38;;;15.05;56.13
9764;BME280;4921;43.214;27.936;2022-10-17T06:03:34;102577.88;;;15.09;56.24
9764;BME280;4921;43.214;27.936;2022-10-17T06:06:04;102579.16;;;15.16;56.26
9764;BME280;4921;43.214;27.936;2022-10-17T06:08:33;102582.22;;;15.22;56.23
9764;BME280;4921;43.214;27.936;2022-10-17T06:11:00;102580.84;;;15.29;56.24
9764;BME280;4921;43.214;27.936;2022-10-17T06:13:28;102585.97;;;15.33;57.00
9764;BME280;4921;43.214;27.936;2022-10-17T06:15:56;102586.38;;;15.39;58.21
9764;BME280;4921;43.214;27.936;2022-10-17T06:18:23;102591.84;;;15.50;60.45
9764;BME280;4921;43.214;27.936;2022-10-17T06:20:51;102588.22;;;15.64;62.45
9764;BME280;4921;43.214;27.936;2022-10-17T06:23:18;102589.38;;;15.72;65.08
9764;BME280;4921;43.214;27.936;2022-10-17T06:25:45;102585.34;;;15.79;65.87
9764;BME280;4921;43.214;27.936;2022-10-17T06:28:12;102591.63;;;15.91;66.66
9764;BME280;4921;43.214;27.936;2022-10-17T06:30:40;102598.50;;;16.06;67.21
9764;BME280;4921;43.214;27.936;2022-10-17T06:33:07;102595.19;;;16.15;67.88
9764;BME280;4921;43.214;27.936;2022-10-17T06:35:34;102601.53;;;16.25;67.75
9764;BME280;4921;43.214;27.936;2022-10-17T06:38:02;102600.16;;;16.32;67.40
9764;BME280;4921;43.214;27.936;2022-10-17T06:40:29;102597.91;;;16.39;67.42
9764;BME280;4921;43.214;27.936;2022-10-17T06:42:56;102605.16;;;16.48;67.70
9764;BME280;4921;43.214;27.936;2022-10-17T06:45:23;102601.88;;;16.57;68.34
9764;BME280;4921;43.214;27.936;2022-10-17T06:47:51;102609.91;;;16.68;69.62
9764;BME280;4921;43.214;27.936;2022-10-17T06:50:18;102605.63;;;16.78;71.06
9764;BME280;4921;43.214;27.936;2022-10-17T06:52:45;102612.91;;;16.87;71.19
9764;BME280;4921;43.214;27.936;2022-10-17T06:55:16;102621.16;;;16.95;71.50
9764;BME280;4921;43.214;27.936;2022-10-17T06:57:43;102618.28;;;16.98;71.68
9764;BME280;4921;43.214;27.936;2022-10-17T07:00:11;102620.00;;;17.10;71.88
9764;BME280;4921;43.214;27.936;2022-10-17T07:02:38;102623.78;;;17.19;71.93
9764;BME280;4921;43.214;27.936;2022-10-17T07:05:07;102619.59;;;17.27;71.84
9764;BME280;4921;43.214;27.936;2022-10-17T07:07:34;102615.41;;;17.36;72.55
9764;BME280;4921;43.214;27.936;2022-10-17T07:10:01;102619.06;;;17.46;72.28
9764;BME280;4921;43.214;27.936;2022-10-17T07:12:28;102626.25;;;17.57;71.57
9764;BME280;4921;43.214;27.936;2022-10-17T07:14:55;102618.41;;;17.66;71.03
9764;BME280;4921;43.214;27.936;2022-10-17T07:17:22;102626.63;;;17.74;69.97
9764;BME280;4921;43.214;27.936;2022-10-17T07:19:49;102624.72;;;17.87;68.86
9764;BME280;4921;43.214;27.936;2022-10-17T07:22:17;102628.47;;;17.96;68.59
9764;BME280;4921;43.214;27.936;2022-10-17T07:24:44;102625.19;;;18.03;67.70
9764;BME280;4921;43.214;27.936;2022-10-17T07:27:12;102638.16;;;18.08;67.48
9764;BME280;4921;43.214;27.936;2022-10-17T07:29:39;102635.72;;;18.16;67.22
9764;BME280;4921;43.214;27.936;2022-10-17T07:32:06;102631.75;;;18.21;67.09
9764;BME280;4921;43.214;27.936;2022-10-17T07:34:34;102622.75;;;18.22;65.35
9764;BME280;4921;43.214;27.936;2022-10-17T07:37:02;102635.63;;;18.28;65.33
9764;BME280;4921;43.214;27.936;2022-10-17T07:39:32;102634.25;;;18.34;65.74
9764;BME280;4921;43.214;27.936;2022-10-17T07:42:00;102635.97;;;18.46;65.47
9764;BME280;4921;43.214;27.936;2022-10-17T07:44:27;102639.47;;;18.47;65.81
9764;BME280;4921;43.214;27.936;2022-10-17T07:46:54;102639.84;;;18.53;66.01
9764;BME280;4921;43.214;27.936;2022-10-17T07:49:21;102624.44;;;18.57;66.65
9764;BME280;4921;43.214;27.936;2022-10-17T07:51:47;102622.13;;;18.63;66.21
9764;BME280;4921;43.214;27.936;2022-10-17T07:54:14;102628.06;;;18.67;65.94
9764;BME280;4921;43.214;27.936;2022-10-17T07:56:43;102626.31;;;18.77;65.82
9764;BME280;4921;43.214;27.936;2022-10-17T07:59:15;102629.59;;;18.80;65.33
9764;BME280;4921;43.214;27.936;2022-10-17T08:01:42;102628.00;;;18.89;65.34
9764;BME280;4921;43.214;27.936;2022-10-17T08:04:09;102621.16;;;18.96;64.24
9764;BME280;4921;43.214;27.936;2022-10-17T08:06:36;102621.50;;;19.02;63.71
9764;BME280;4921;43.214;27.936;2022-10-17T08:09:03;102619.66;;;19.14;63.08
9764;BME280;4921;43.214;27.936;2022-10-17T08:11:30;102622.50;;;19.22;62.93
9764;BME280;4921;43.214;27.936;2022-10-17T08:13:58;102623.41;;;19.32;62.03
9764;BME280;4921;43.214;27.936;2022-10-17T08:16:25;102626.91;;;19.44;61.45
9764;BME280;4921;43.214;27.936;2022-10-17T08:18:52;102632.72;;;19.49;61.15
9764;BME280;4921;43.214;27.936;2022-10-17T08:21:19;102626.00;;;19.54;59.42
9764;BME280;4921;43.214;27.936;2022-10-17T08:23:46;102613.56;;;19.64;59.55
9764;BME280;4921;43.214;27.936;2022-10-17T08:26:13;102626.50;;;19.69;59.68
9764;BME280;4921;43.214;27.936;2022-10-17T08:28:41;102626.41;;;19.80;58.80
9764;BME280;4921;43.214;27.936;2022-10-17T08:31:12;102635.47;;;19.89;58.40
9764;BME280;4921;43.214;27.936;2022-10-17T08:33:40;102634.81;;;19.96;58.64
9764;BME280;4921;43.214;27.936;2022-10-17T08:36:07;102629.63;;;20.04;58.52
9764;BME280;4921;43.214;27.936;2022-10-17T08:38:35;102623.03;;;20.08;58.70
9764;BME280;4921;43.214;27.936;2022-10-17T08:41:06;102634.88;;;20.15;61.63
9764;BME280;4921;43.214;27.936;2022-10-17T08:43:48;102631.09;;;20.18;59.80
9764;BME280;4921;43.214;27.936;2022-10-17T08:46:18;102635.09;;;20.23;57.94
9764;BME280;4921;43.214;27.936;2022-10-17T08:48:47;102623.44;;;20.34;57.66
9764;BME280;4921;43.214;27.936;2022-10-17T08:51:17;102625.75;;;20.48;58.25
9764;BME280;4921;43.214;27.936;2022-10-17T08:53:50;102622.25;;;20.57;57.10
9764;BME280;4921;43.214;27.936;2022-10-17T08:56:20;102632.94;;;20.67;56.76
9764;BME280;4921;43.214;27.936;2022-10-17T08:58:49;102637.75;;;20.73;56.80
9764;BME280;4921;43.214;27.936;2022-10-17T09:01:30;102628.63;;;20.85;55.44
9764;BME280;4921;43.214;27.936;2022-10-17T09:04:09;102624.84;;;20.87;55.10
9764;BME280;4921;43.214;27.936;2022-10-17T09:06:46;102625.13;;;20.94;55.18
9764;BME280;4921;43.214;27.936;2022-10-17T09:09:24;102630.59;;;20.83;55.50
9764;BME280;4921;43.214;27.936;2022-10-17T09:12:04;102639.47;;;20.93;55.26
9764;BME280;4921;43.214;27.936;2022-10-17T09:15:00;102638.47;;;20.84;53.69
9764;BME280;4921;43.214;27.936;2022-10-17T09:17:39;102647.19;;;20.77;54.64
9764;BME280;4921;43.214;27.936;2022-10-17T09:20:15;102641.16;;;20.94;54.38
9764;BME280;4921;43.214;27.936;2022-10-17T09:22:46;102637.06;;;20.99;54.08
9764;BME280;4921;43.214;27.936;2022-10-17T09:25:16;102634.00;;;21.04;53.45
9764;BME280;4921;43.214;27.936;2022-10-17T09:27:47;102643.97;;;21.02;53.01
9764;BME280;4921;43.214;27.936;2022-10-17T09:30:34;102641.03;;;21.05;52.61
9764;BME280;4921;43.214;27.936;2022-10-17T09:33:10;102632.44;;;21.01;52.27
9764;BME280;4921;43.214;27.936;2022-10-17T09:35:38;102640.44;;;21.01;51.89
9764;BME280;4921;43.214;27.936;2022-10-17T09:38:12;102632.44;;;21.01;52.17
9764;BME280;4921;43.214;27.936;2022-10-17T09:40:41;102638.38;;;21.05;52.30
9764;BME280;4921;43.214;27.936;2022-10-17T09:43:12;102631.19;;;21.05;52.56
9764;BME280;4921;43.214;27.936;2022-10-17T09:45:43;102627.38;;;21.08;52.30
9764;BME280;4921;43.214;27.936;2022-10-17T09:48:20;102625.44;;;21.19;52.24
9764;BME280;4921;43.214;27.936;2022-10-17T09:50:52;102622.06;;;21.17;52.44
9764;BME280;4921;43.214;27.936;2022-10-17T09:53:23;102625.97;;;21.04;51.75
9764;BME280;4921;43.214;27.936;2022-10-17T09:55:54;102628.19;;;20.99;51.23
9764;BME280;4921;43.214;27.936;2022-10-17T09:58:22;102622.19;;;21.06;51.16
9764;BME280;4921;43.214;27.936;2022-10-17T10:00:49;102620.50;;;21.15;51.56
9764;BME280;4921;43.214;27.936;2022-10-17T10:03:19;102616.41;;;21.20;51.58
9764;BME280;4921;43.214;27.936;2022-10-17T10:06:01;102626.94;;;21.22;51.36
9764;BME280;4921;43.214;27.936;2022-10-17T10:08:31;102623.84;;;21.26;51.49
9764;BME280;4921;43.214;27.936;2022-10-17T10:11:00;102616.69;;;21.17;51.48
9764;BME280;4921;43.214;27.936;2022-10-17T10:13:30;102622.16;;;21.16;51.70
9764;BME280;4921;43.214;27.936;2022-10-17T10:16:17;102617.25;;;21.11;50.62
9764;BME280;4921;43.214;27.936;2022-10-17T10:18:47;102613.72;;;21.20;50.47
9764;BME280;4921;43.214;27.936;2022-10-17T10:21:16;102607.94;;;21.35;51.00
9764;BME280;4921;43.214;27.936;2022-10-17T10:23:45;102611.19;;;21.09;52.47
9764;BME280;4921;43.214;27.936;2022-10-17T10:26:32;102609.22;;;21.11;53.12
9764;BME280;4921;43.214;27.936;2022-10-17T10:29:02;102610.47;;;21.07;51.18
9764;BME280;4921;43.214;27.936;2022-10-17T10:31:33;102608.66;;;21.08;50.95
9764;BME280;4921;43.214;27.936;2022-10-17T10:34:12;102598.63;;;21.29;50.46
9764;BME280;4921;43.214;27.936;2022-10-17T10:36:49;102597.81;;;21.19;51.58
9764;BME280;4921;43.214;27.936;2022-10-17T10:39:51;102596.97;;;21.09;53.77
9764;BME280;4921;43.214;27.936;2022-10-17T10:42:25;102598.94;;;21.07;52.63
9764;BME280;4921;43.214;27.936;2022-10-17T10:44:54;102607.22;;;21.13;51.03
9764;BME280;4921;43.214;27.936;2022-10-17T10:47:24;102598.19;;;20.86;51.00
9764;BME280;4921;43.214;27.936;2022-10-17T10:50:08;102592.56;;;20.98;51.20
9764;BME280;4921;43.214;27.936;2022-10-17T10:52:45;102588.66;;;21.21;51.02
9764;BME280;4921;43.214;27.936;2022-10-17T10:55:23;102592.34;;;21.11;54.25
9764;BME280;4921;43.214;27.936;2022-10-17T10:57:55;102594.97;;;20.92;55.99
9764;BME280;4921;43.214;27.936;2022-10-17T11:00:26;102588.19;;;20.88;56.46
9764;BME280;4921;43.214;27.936;2022-10-17T11:03:00;102576.94;;;20.84;57.61
9764;BME280;4921;43.214;27.936;2022-10-17T11:05:40;102582.16;;;20.57;59.33
9764;BME280;4921;43.214;27.936;2022-10-17T11:08:17;102583.81;;;20.48;60.92
9764;BME280;4921;43.214;27.936;2022-10-17T11:10:55;102580.44;;;20.56;60.82
9764;BME280;4921;43.214;27.936;2022-10-17T11:13:27;102583.91;;;20.28;58.89
9764;BME280;4921;43.214;27.936;2022-10-17T11:16:01;102587.34;;;20.19;60.02
9764;BME280;4921;43.214;27.936;2022-10-17T11:18:37;102578.41;;;20.29;58.20
9764;BME280;4921;43.214;27.936;2022-10-17T11:21:15;102586.19;;;20.51;57.50
9764;BME280;4921;43.214;27.936;2022-10-17T11:23:46;102582.69;;;20.41;60.46
9764;BME280;4921;43.214;27.936;2022-10-17T11:26:19;102578.59;;;20.47;60.28
9764;BME280;4921;43.214;27.936;2022-10-17T11:28:51;102575.94;;;20.57;59.81
9764;BME280;4921;43.214;27.936;2022-10-17T11:31:19;102576.09;;;20.65;59.20
9764;BME280;4921;43.214;27.936;2022-10-17T11:33:50;102576.50;;;20.50;55.13
9764;BME280;4921;43.214;27.936;2022-10-17T11:36:26;102570.31;;;20.60;54.57
9764;BME280;4921;43.214;27.936;2022-10-17T11:38:57;102579.63;;;20.84;54.23
9764;BME280;4921;43.214;27.936;2022-10-17T11:41:30;102570.88;;;20.92;54.03
9764;BME280;4921;43.214;27.936;2022-10-17T11:44:04;102579.06;;;20.90;53.98
9764;BME280;4921;43.214;27.936;2022-10-17T11:46:34;102568.63;;;20.97;54.35
9764;BME280;4921;43.214;27.936;2022-10-17T11:49:08;102570.06;;;20.91;54.02
9764;BME280;4921;43.214;27.936;2022-10-17T11:51:42;102564.69;;;21.01;53.04
9764;BME280;4921;43.214;27.936;2022-10-17T11:54:14;102571.31;;;20.97;52.75
9764;BME280;4921;43.214;27.936;2022-10-17T11:56:48;102576.53;;;20.89;53.44
9764;BME280;4921;43.214;27.936;2022-10-17T11:59:47;102574.28;;;21.03;53.64
9764;BME280;4921;43.214;27.936;2022-10-17T12:02:26;102568.22;;;21.01;53.90
9764;BME280;4921;43.214;27.936;2022-10-17T12:04:59;102570.34;;;21.07;52.92
9764;BME280;4921;43.214;27.936;2022-10-17T12:07:36;102575.13;;;20.85;52.96
9764;BME280;4921;43.214;27.936;2022-10-17T12:10:19;102569.63;;;20.96;53.47
9764;BME280;4921;43.214;27.936;2022-10-17T12:12:50;102570.88;;;20.92;54.19
9764;BME280;4921;43.214;27.936;2022-10-17T12:15:28;102576.09;;;20.84;54.18
9764;BME280;4921;43.214;27.936;2022-10-17T12:17:57;102568.22;;;21.01;54.70
9764;BME280;4921;43.214;27.936;2022-10-17T12:20:30;102572.03;;;20.80;55.57
9764;BME280;4921;43.214;27.936;2022-10-17T12:23:03;102585.81;;;20.85;55.37
9764;BME280;4921;43.214;27.936;2022-10-17T12:25:33;102575.53;;;20.71;55.71
9764;BME280;4921;43.214;27.936;2022-10-17T12:28:21;102584.41;;;20.62;55.04
9764;BME280;4921;43.214;27.936;2022-10-17T12:30:54;102586.63;;;20.66;56.10
9764;BME280;4921;43.214;27.936;2022-10-17T12:33:27;102595.38;;;20.59;56.22
9764;BME280;4921;43.214;27.936;2022-10-17T12:42:31;102595.03;;;20.33;60.47
9764;BME280;4921;43.214;27.936;2022-10-17T12:44:59;102584.38;;;20.03;57.96
9764;BME280;4921;43.214;27.936;2022-10-17T12:47:37;102582.53;;;20.03;58.51
9764;BME280;4921;43.214;27.936;2022-10-17T12:53:14;102588.19;;;20.10;59.09
9764;BME280;4921;43.214;27.936;2022-10-17T12:55:42;102593.22;;;20.03;59.19
9764;BME280;4921;43.214;27.936;2022-10-17T12:58:13;102589.22;;;19.88;57.47
9764;BME280;4921;43.214;27.936;2022-10-17T13:00:46;102599.78;;;19.90;58.97
9764;BME280;4921;43.214;27.936;2022-10-17T13:03:17;102593.94;;;19.75;60.25
9764;BME280;4921;43.214;27.936;2022-10-17T13:05:48;102586.75;;;19.75;60.77
9764;BME280;4921;43.214;27.936;2022-10-17T13:08:19;102588.53;;;19.86;59.85
9764;BME280;4921;43.214;27.936;2022-10-17T13:10:49;102600.53;;;19.71;59.31
9764;BME280;4921;43.214;27.936;2022-10-17T13:13:20;102594.59;;;19.67;60.28
9764;BME280;4921;43.214;27.936;2022-10-17T13:15:49;102583.28;;;19.75;60.19
9764;BME280;4921;43.214;27.936;2022-10-17T13:18:19;102587.91;;;19.73;59.11
9764;BME280;4921;43.214;27.936;2022-10-17T13:20:54;102587.53;;;19.87;58.43
9764;BME280;4921;43.214;27.936;2022-10-17T13:23:22;102595.84;;;19.63;59.84
9764;BME280;4921;43.214;27.936;2022-10-17T13:26:01;102594.09;;;19.53;60.85
9764;BME280;4921;43.214;27.936;2022-10-17T13:28:30;102597.66;;;19.63;60.77
9764;BME280;4921;43.214;27.936;2022-10-17T13:30:57;102586.50;;;19.78;59.60